Time;durP1;ratioP1;P1;durP2;ratioP2;P2;SDS_P1;SDS_P2;PMS_P1;PMS_P2;Temp;Humidity;BMP_temperature;BMP_pressure;BME280_temperature;BME280_humidity;BME280_pressure;Samples;Min_cycle;Max_cycle;Signal;HPM_P1;HPM_P2
2021/01/25 00:01:13;;;;;;;6.13;2.40;;;;;;;8.20;100.00;94937.94;4966420;29;20244;-96
2021/01/25 00:03:40;;;;;;;3.60;2.23;;;;;;;8.23;100.00;94953.28;4963591;29;20229;-96
2021/01/25 00:06:07;;;;;;;7.27;2.50;;;;;;;8.30;100.00;94936.69;4967749;29;20694;-96
2021/01/25 00:08:34;;;;;;;2.97;1.97;;;;;;;8.33;100.00;94919.81;4962049;29;20193;-96
2021/01/25 00:11:01;;;;;;;7.70;2.90;;;;;;;8.37;100.00;94912.41;4961287;29;20206;-95
2021/01/25 00:13:28;;;;;;;5.77;3.40;;;;;;;8.34;100.00;94905.72;4960639;29;20201;-96
2021/01/25 00:15:55;;;;;;;3.97;2.47;;;;;;;8.30;100.00;94892.19;4963999;29;20194;-96
2021/01/25 00:18:22;;;;;;;7.50;2.10;;;;;;;8.28;100.00;94886.34;4966645;29;20214;-96
2021/01/25 00:20:49;;;;;;;6.43;2.70;;;;;;;8.23;100.00;94870.34;4966685;29;20198;-96
2021/01/25 00:23:16;;;;;;;5.00;2.80;;;;;;;8.25;100.00;94867.56;4951444;29;20221;-95
2021/01/25 00:25:45;;;;;;;6.13;3.03;;;;;;;8.25;100.00;94860.50;4964107;29;20232;-96
2021/01/25 00:28:12;;;;;;;9.90;3.27;;;;;;;8.22;100.00;94853.00;4960636;29;20225;-96
2021/01/25 00:30:38;;;;;;;6.03;2.43;;;;;;;8.21;100.00;94835.69;4959616;29;20269;-94
2021/01/25 00:33:06;;;;;;;3.27;2.13;;;;;;;8.18;100.00;94832.63;4960437;28;20261;-95
2021/01/25 00:35:33;;;;;;;6.13;3.23;;;;;;;8.17;100.00;94817.88;4969287;29;20217;-95
2021/01/25 00:38:00;;;;;;;8.13;3.27;;;;;;;8.19;100.00;94803.63;4962981;29;20198;-96
2021/01/25 00:40:27;;;;;;;5.60;3.30;;;;;;;8.15;100.00;94791.09;4960463;29;20248;-93
2021/01/25 00:42:55;;;;;;;7.30;2.83;;;;;;;8.13;100.00;94788.66;4963935;29;20201;-94
2021/01/25 00:45:22;;;;;;;6.40;2.63;;;;;;;8.14;100.00;94781.59;4960950;29;20205;-96
2021/01/25 00:47:49;;;;;;;10.30;3.00;;;;;;;8.17;100.00;94778.63;4959666;29;20623;-96
2021/01/25 00:50:16;;;;;;;6.80;2.70;;;;;;;8.15;100.00;94778.81;4956723;29;20635;-95
2021/01/25 00:52:43;;;;;;;8.27;3.00;;;;;;;8.17;100.00;94779.44;4956370;29;20194;-96
2021/01/25 00:55:11;;;;;;;4.73;2.10;;;;;;;8.20;100.00;94786.94;4957600;29;20209;-96
2021/01/25 00:57:39;;;;;;;9.70;2.20;;;;;;;8.25;100.00;94778.56;4957893;29;20635;-93
2021/01/25 01:00:09;;;;;;;9.13;2.77;;;;;;;8.24;100.00;94782.16;4956855;29;20201;-96
2021/01/25 01:02:36;;;;;;;6.60;2.67;;;;;;;8.21;100.00;94779.88;4957036;29;20198;-96
2021/01/25 01:05:04;;;;;;;7.57;3.67;;;;;;;8.22;100.00;94763.22;4957876;29;20226;-96
2021/01/25 01:07:31;;;;;;;5.47;2.50;;;;;;;8.24;100.00;94762.03;4957689;29;20659;-95
2021/01/25 01:09:58;;;;;;;4.77;2.57;;;;;;;8.27;100.00;94760.84;4957164;29;20193;-93
2021/01/25 01:12:25;;;;;;;5.03;2.80;;;;;;;8.22;100.00;94758.78;4956051;29;20209;-94
2021/01/25 01:14:51;;;;;;;2.87;2.27;;;;;;;8.18;100.00;94762.75;4956619;29;20580;-94
2021/01/25 01:17:20;;;;;;;8.43;2.90;;;;;;;8.21;100.00;94751.09;4956643;29;20576;-95
2021/01/25 01:19:47;;;;;;;5.03;2.80;;;;;;;8.19;100.00;94721.69;4956107;29;20671;-96
2021/01/25 01:22:14;;;;;;;5.93;3.30;;;;;;;8.21;100.00;94736.22;4957143;29;20612;-95
2021/01/25 01:24:40;;;;;;;3.80;2.80;;;;;;;8.23;100.00;94725.56;4955406;29;20308;-93
2021/01/25 01:27:07;;;;;;;9.67;3.53;;;;;;;8.27;100.00;94724.22;4956477;29;20212;-96
2021/01/25 01:29:34;;;;;;;5.83;2.87;;;;;;;8.22;100.00;94711.69;4956678;29;20205;-95
2021/01/25 01:32:01;;;;;;;6.07;3.00;;;;;;;8.21;100.00;94710.06;4958557;29;20201;-96
2021/01/25 01:34:29;;;;;;;4.97;3.40;;;;;;;8.26;100.00;94702.47;4956071;29;20197;-95
2021/01/25 01:36:56;;;;;;;5.27;3.23;;;;;;;8.23;100.00;94697.59;4957480;29;20201;-96
2021/01/25 01:39:23;;;;;;;9.63;3.70;;;;;;;8.17;100.00;94687.84;4956840;29;20265;-94
2021/01/25 01:41:50;;;;;;;8.33;4.30;;;;;;;8.13;100.00;94688.41;4957170;29;20292;-95
2021/01/25 01:44:17;;;;;;;6.80;3.07;;;;;;;8.07;100.00;94696.00;4963574;28;20253;-96
2021/01/25 01:46:44;;;;;;;8.03;2.90;;;;;;;8.04;100.00;94677.22;4961289;29;20617;-95
2021/01/25 01:49:12;;;;;;;7.50;2.67;;;;;;;8.04;100.00;94672.00;4956583;29;20214;-94
2021/01/25 01:51:40;;;;;;;7.03;2.90;;;;;;;8.01;100.00;94654.84;4955501;29;20244;-95
2021/01/25 01:54:07;;;;;;;8.10;3.30;;;;;;;7.98;100.00;94630.84;4955832;29;20629;-96
2021/01/25 01:56:35;;;;;;;8.67;3.20;;;;;;;7.97;100.00;94624.00;4955531;29;20237;-95
2021/01/25 01:59:02;;;;;;;9.97;3.53;;;;;;;8.03;100.00;94612.78;4955716;29;20202;-94
2021/01/25 02:01:29;;;;;;;8.03;3.70;;;;;;;8.09;100.00;94614.69;4955356;29;20769;-95
2021/01/25 02:03:57;;;;;;;9.87;4.60;;;;;;;8.12;100.00;94616.94;4955524;29;20221;-95
2021/01/25 02:06:26;;;;;;;8.77;3.10;;;;;;;8.14;100.00;94604.50;4956744;29;20206;-95
2021/01/25 02:08:56;;;;;;;6.10;3.13;;;;;;;8.19;100.00;94620.44;4955149;29;20261;-95
2021/01/25 02:11:23;;;;;;;6.00;3.03;;;;;;;8.22;100.00;94614.03;4955485;29;20209;-94
2021/01/25 02:13:52;;;;;;;7.80;3.43;;;;;;;8.25;100.00;94611.84;4955481;29;20292;-95
2021/01/25 02:16:19;;;;;;;8.83;2.80;;;;;;;8.31;100.00;94626.84;4956672;29;20201;-93
2021/01/25 02:18:46;;;;;;;6.27;2.87;;;;;;;8.26;100.00;94613.47;4955511;29;20194;-96
2021/01/25 02:21:16;;;;;;;6.10;2.73;;;;;;;8.21;100.00;94600.16;4955310;29;20335;-96
2021/01/25 02:24:20;;;;;;;8.80;2.97;;;;;;;8.26;100.00;94592.53;4955418;29;20599;-94
2021/01/25 02:27:18;;;;;;;9.63;3.03;;;;;;;8.29;100.00;94591.34;4939981;29;20204;-95
2021/01/25 02:29:46;;;;;;;7.80;3.23;;;;;;;8.36;100.00;94567.88;4954941;29;20194;-95
2021/01/25 02:32:13;;;;;;;6.47;2.70;;;;;;;8.41;100.00;94561.09;4955021;29;20201;-95
2021/01/25 02:34:41;;;;;;;8.83;3.80;;;;;;;8.43;100.00;94537.34;4955423;29;20197;-95
2021/01/25 02:37:10;;;;;;;7.80;2.47;;;;;;;8.55;100.00;94536.66;4959311;29;20265;-96
2021/01/25 02:39:37;;;;;;;9.37;2.77;;;;;;;8.57;100.00;94557.41;4957290;29;20253;-95
2021/01/25 02:42:06;;;;;;;5.57;3.13;;;;;;;8.66;100.00;94534.53;4955814;29;20686;-96
2021/01/25 02:44:35;;;;;;;8.93;3.80;;;;;;;8.73;100.00;94525.75;4956978;29;20362;-95
2021/01/25 02:47:03;;;;;;;18.00;8.80;;;;;;;8.72;100.00;94528.53;4955861;29;20328;-95
2021/01/25 02:49:30;;;;;;;6.17;2.60;;;;;;;8.78;100.00;94528.59;4955266;29;20202;-95
2021/01/25 02:51:57;;;;;;;8.50;4.43;;;;;;;8.75;100.00;94536.00;4955099;29;20230;-94
2021/01/25 02:54:24;;;;;;;9.37;5.77;;;;;;;8.70;100.00;94530.53;4955151;29;20202;-96
2021/01/25 02:56:51;;;;;;;2.90;2.60;;;;;;;8.79;100.00;94522.34;4956170;28;20197;-96
2021/01/25 02:59:18;;;;;;;7.10;2.13;;;;;;;8.76;100.00;94519.28;4958993;29;20210;-95
2021/01/25 03:01:46;;;;;;;5.07;3.30;;;;;;;8.69;100.00;94513.19;4958344;29;20198;-95
2021/01/25 03:04:15;;;;;;;9.80;4.03;;;;;;;8.69;100.00;94506.13;4958649;29;20230;-94
2021/01/25 03:06:42;;;;;;;5.67;2.87;;;;;;;8.72;100.00;94512.81;4959135;29;20213;-96
2021/01/25 03:09:09;;;;;;;5.20;2.13;;;;;;;8.71;100.00;94513.81;4958156;29;20260;-96
2021/01/25 03:11:39;;;;;;;9.10;2.40;;;;;;;8.65;100.00;94518.00;4957909;29;20206;-95
2021/01/25 03:14:07;;;;;;;6.83;2.07;;;;;;;8.69;100.00;94511.38;4959604;29;20225;-96
2021/01/25 03:16:34;;;;;;;3.17;2.00;;;;;;;8.75;100.00;94497.53;4960167;29;20202;-95
2021/01/25 03:19:01;;;;;;;6.37;4.10;;;;;;;8.79;100.00;94508.44;4958201;29;20194;-93
2021/01/25 03:21:28;;;;;;;9.77;4.03;;;;;;;8.75;100.00;94512.44;4958171;29;20225;-95
2021/01/25 03:23:55;;;;;;;5.30;2.97;;;;;;;8.80;100.00;94521.34;4958301;29;20280;-96
2021/01/25 03:26:22;;;;;;;10.73;5.60;;;;;;;8.94;100.00;94508.34;4958989;29;20291;-96
2021/01/25 03:31:19;;;;;;;5.23;2.03;;;;;;;8.89;100.00;94500.25;5423459;23;21035;-95
2021/01/25 03:33:46;;;;;;;3.73;1.37;;;;;;;8.91;100.00;94503.50;5340956;23;20233;-96
2021/01/25 03:36:13;;;;;;;1.33;1.20;;;;;;;8.91;100.00;94498.25;5082911;23;20261;-96
2021/01/25 03:44:33;;;;;;;2.37;1.40;;;;;;;8.88;100.00;94503.88;5774924;23;20220;31
2021/01/25 03:47:14;;;;;;;5.40;1.80;;;;;;;8.86;100.00;94482.28;5532436;23;21070;31
2021/01/25 03:52:31;;;;;;;3.17;2.10;;;;;;;8.85;100.00;94491.16;5917181;23;20177;-95
2021/01/25 04:00:30;;;;;;;4.47;1.73;;;;;;;8.95;100.00;94483.75;5845754;23;20216;-94
2021/01/25 04:49:39;;;;;;;5.93;2.40;;;;;;;8.93;100.00;94472.66;1548411;23;20408;-95
2021/01/25 05:13:42;;;;;;;9.40;3.73;;;;;;;8.91;100.00;94469.44;5868677;23;20197;-96
2021/01/25 05:19:00;;;;;;;4.70;2.87;;;;;;;8.97;100.00;94460.78;5723132;23;20217;-96
2021/01/25 05:21:34;;;;;;;4.00;1.87;;;;;;;9.02;100.00;94448.72;5264461;23;20217;-94
2021/01/25 07:21:19;;;;;;;15.13;8.27;;;;;;;9.65;100.00;94364.66;5421602;23;20233;-96
2021/01/25 07:23:48;;;;;;;30.53;17.77;;;;;;;9.69;100.00;94372.94;5119508;23;20240;-96
2021/01/25 07:26:16;;;;;;;31.93;21.03;;;;;;;9.71;100.00;94368.31;4977252;28;20177;-96
2021/01/25 07:28:44;;;;;;;30.77;19.13;;;;;;;9.68;100.00;94384.44;4978143;28;20197;-96
2021/01/25 07:31:12;;;;;;;50.30;31.40;;;;;;;9.77;100.00;94385.88;4978451;28;20239;-96
2021/01/25 07:33:43;;;;;;;35.87;28.83;;;;;;;9.72;100.00;94383.84;4974181;28;20197;-96
2021/01/25 07:36:10;;;;;;;23.97;18.13;;;;;;;9.76;100.00;94377.19;4974508;29;20236;-96
2021/01/25 07:38:38;;;;;;;11.67;8.10;;;;;;;9.76;100.00;94379.81;4970567;28;20194;-96
2021/01/25 07:41:06;;;;;;;19.23;11.60;;;;;;;9.75;100.00;94372.94;4974914;28;20208;-96
2021/01/25 07:43:33;;;;;;;7.03;3.13;;;;;;;9.82;100.00;94364.28;5218138;23;20245;-96
2021/01/25 07:46:08;;;;;;;7.33;3.67;;;;;;;9.76;100.00;94361.44;5097518;23;20235;-96
2021/01/25 07:48:35;;;;;;;4.40;2.93;;;;;;;9.80;100.00;94359.22;4974765;28;20206;-96
2021/01/25 07:51:02;;;;;;;5.63;2.70;;;;;;;9.75;100.00;94378.19;4975274;28;20204;-96
2021/01/25 08:02:44;;;;;;;7.47;3.17;;;;;;;10.05;100.00;94398.84;4335738;23;20487;-96
2021/01/25 08:22:18;;;;;;;5.13;3.33;;;;;;;10.58;100.00;94416.44;4957474;29;20238;-96
2021/01/25 08:24:55;;;;;;;81.87;56.63;;;;;;;10.53;100.00;94408.34;5079746;23;20201;-96
2021/01/25 08:27:24;;;;;;;21.57;16.37;;;;;;;10.60;100.00;94406.50;5128740;23;20220;-96
2021/01/25 08:32:28;;;;;;;39.40;27.97;;;;;;;10.62;100.00;94389.53;5431754;23;20244;-95
2021/01/25 08:34:59;;;;;;;34.47;24.43;;;;;;;10.61;100.00;94379.25;5271175;23;20301;-96
2021/01/25 08:37:30;;;;;;;10.33;6.87;;;;;;;10.62;100.00;94371.16;5056567;23;20232;-96
2021/01/25 08:47:48;;;;;;;25.70;12.43;;;;;;;10.80;100.00;94348.66;5622137;23;20223;-96
2021/01/25 08:50:29;;;;;;;40.27;24.93;;;;;;;10.84;100.00;94340.19;5453580;23;20205;-96
2021/01/25 08:53:02;;;;;;;27.37;16.53;;;;;;;10.84;100.00;94334.09;4972262;29;20202;-96
2021/01/25 08:55:36;;;;;;;16.27;9.50;;;;;;;10.81;100.00;94347.69;4971731;29;20659;-96
2021/01/25 08:58:14;;;;;;;8.27;4.03;;;;;;;10.82;100.00;94351.91;5014341;23;20249;-96
2021/01/25 09:00:43;;;;;;;6.87;5.17;;;;;;;10.86;100.00;94361.00;4974974;29;20209;-96
2021/01/25 09:03:12;;;;;;;7.83;5.13;;;;;;;10.85;100.00;94364.63;5067507;23;20237;-96
2021/01/25 09:05:40;;;;;;;13.90;9.53;;;;;;;10.83;100.00;94375.34;4975475;28;20303;-96
2021/01/25 09:08:08;;;;;;;9.07;4.23;;;;;;;10.86;100.00;94379.38;4979193;28;20197;-95
2021/01/25 09:10:36;;;;;;;3.30;3.00;;;;;;;10.85;100.00;94386.47;5039343;23;20261;-96
2021/01/25 09:13:04;;;;;;;7.53;4.40;;;;;;;10.93;100.00;94393.31;4972038;28;20206;-95
2021/01/25 09:15:31;;;;;;;7.97;4.90;;;;;;;10.93;100.00;94396.75;4964327;28;20730;-96
2021/01/25 09:17:58;;;;;;;6.57;4.50;;;;;;;10.98;100.00;94403.19;4967398;28;20230;-95
2021/01/25 09:20:26;;;;;;;10.00;6.00;;;;;;;10.87;100.00;94402.03;4969465;28;20201;-96
2021/01/25 09:22:53;;;;;;;3.83;2.03;;;;;;;10.88;100.00;94398.41;4968440;28;20189;-96
2021/01/25 09:25:23;;;;;;;5.23;3.87;;;;;;;10.99;100.00;94400.38;4971613;28;20721;-96
2021/01/25 09:27:51;;;;;;;3.73;3.07;;;;;;;11.04;100.00;94400.56;4969392;29;20193;-96
2021/01/25 09:30:19;;;;;;;9.73;2.90;;;;;;;10.94;100.00;94403.63;4972913;28;20209;-95
2021/01/25 09:32:46;;;;;;;3.80;2.30;;;;;;;10.98;100.00;94406.66;4971129;28;20204;-96
2021/01/25 09:35:16;;;;;;;7.43;5.03;;;;;;;11.04;100.00;94392.66;4968476;28;20194;-96
2021/01/25 09:37:44;;;;;;;14.77;7.30;;;;;;;10.98;100.00;94383.00;4965156;28;20667;-96
2021/01/25 09:40:12;;;;;;;9.77;4.13;;;;;;;10.93;100.00;94380.19;4969189;28;20654;-95
2021/01/25 09:42:40;;;;;;;5.77;2.57;;;;;;;10.84;100.00;94376.16;4973713;28;20204;-96
2021/01/25 09:52:47;;;;;;;12.67;9.13;;;;;;;10.50;100.00;94354.41;4955557;29;20224;-96
2021/01/25 10:39:34;;;;;;;5.87;3.83;;;;;;;10.06;100.00;94463.44;5006466;23;20731;-96
2021/01/25 10:42:01;;;;;;;3.77;2.17;;;;;;;9.82;100.00;94474.47;5055688;23;20237;-95
2021/01/25 10:44:28;;;;;;;7.93;2.40;;;;;;;9.62;100.00;94490.94;4959266;28;20218;-95
2021/01/25 10:46:55;;;;;;;3.00;1.60;;;;;;;9.26;100.00;94491.22;4955558;28;20199;-91
2021/01/25 10:49:22;;;;;;;2.67;2.23;;;;;;;9.24;100.00;94511.56;4955970;28;20690;-93
2021/01/25 10:51:49;;;;;;;5.63;3.30;;;;;;;8.73;100.00;94535.41;4960329;29;20766;-96
2021/01/25 10:54:22;;;;;;;7.13;3.10;;;;;;;7.92;100.00;94628.97;4955557;29;20202;-94
2021/01/25 10:56:51;;;;;;;3.20;2.77;;;;;;;7.19;100.00;94620.91;4958401;29;20264;-96
2021/01/25 10:59:18;;;;;;;3.07;2.63;;;;;;;7.08;100.00;94634.41;4957194;28;20202;-95
2021/01/25 11:01:45;;;;;;;2.30;2.10;;;;;;;7.05;100.00;94640.00;4957769;29;20210;-93
2021/01/25 11:04:12;;;;;;;3.10;2.17;;;;;;;6.83;100.00;94657.31;4962180;29;20654;-96
2021/01/25 11:06:39;;;;;;;2.20;1.90;;;;;;;6.92;100.00;94661.47;4969845;29;20182;-96
2021/01/25 11:09:06;;;;;;;1.90;1.70;;;;;;;6.96;100.00;94638.44;4972052;28;20208;-96
2021/01/25 11:11:34;;;;;;;2.60;2.40;;;;;;;6.98;100.00;94644.31;4971689;29;20213;-96
2021/01/25 11:14:01;;;;;;;2.63;2.10;;;;;;;7.07;100.00;94638.03;5156962;23;20218;-96
2021/01/25 12:49:23;;;;;;;18.57;13.13;;;;;;;11.18;100.00;94724.75;5117589;23;20308;-96
2021/01/25 12:51:51;;;;;;;3.20;2.90;;;;;;;11.49;100.00;94726.81;4973263;28;20631;-94
2021/01/25 12:54:19;;;;;;;6.07;5.47;;;;;;;11.68;100.00;94716.50;5017930;23;20210;-95
2021/01/25 12:56:47;;;;;;;5.73;5.20;;;;;;;11.96;100.00;94732.91;5127770;23;20289;-96
2021/01/25 12:59:14;;;;;;;5.47;4.20;;;;;;;12.23;100.00;94752.13;4973688;28;20292;-96
2021/01/25 13:01:42;;;;;;;2.30;1.83;;;;;;;11.96;100.00;94772.41;4959163;29;20197;-95
2021/01/25 13:04:09;;;;;;;1.60;1.50;;;;;;;12.33;100.00;94776.22;4953712;28;20285;-95
2021/01/25 13:06:38;;;;;;;2.50;2.07;;;;;;;12.05;100.00;94787.00;5371582;23;20233;-95
2021/01/25 13:14:36;;;;;;;3.20;2.90;;;;;;;12.40;100.00;94899.22;4189174;23;20400;-93
2021/01/25 13:17:17;;;;;;;6.10;3.43;;;;;;;12.58;100.00;94889.69;4956547;29;20286;-96
2021/01/25 13:19:44;;;;;;;1.37;1.27;;;;;;;12.72;100.00;94913.41;5145266;23;20212;-96
2021/01/25 13:24:46;;;;;;;1.33;1.23;;;;;;;12.57;100.00;94930.25;5151567;23;20227;-95
2021/01/25 13:27:13;;;;;;;2.40;2.20;;;;;;;13.00;100.00;94926.31;5303275;23;20275;-92
2021/01/25 13:29:41;;;;;;;1.50;1.40;;;;;;;12.77;100.00;94935.47;5373251;23;20236;-95
2021/01/25 13:34:49;;;;;;;1.57;1.43;;;;;;;12.70;100.00;94942.59;4939520;29;20684;-95
2021/01/25 13:37:16;;;;;;;1.20;1.10;;;;;;;12.46;100.00;94946.63;4942037;29;20222;-95
2021/01/25 13:39:43;;;;;;;0.97;0.97;;;;;;;12.59;100.00;94948.47;4945766;29;20199;-95
2021/01/25 13:42:11;;;;;;;0.90;0.90;;;;;;;12.48;100.00;94957.00;4949537;29;20237;-95
2021/01/25 13:44:38;;;;;;;1.27;1.17;;;;;;;12.86;100.00;94949.28;4941668;29;20783;-96
2021/01/25 13:47:05;;;;;;;1.30;1.20;;;;;;;12.44;100.00;94958.41;4950796;29;20237;-96
2021/01/25 13:49:32;;;;;;;0.93;0.93;;;;;;;12.55;100.00;94969.16;4931985;29;20754;-95
2021/01/25 13:52:00;;;;;;;1.37;1.27;;;;;;;12.67;100.00;94965.91;4944384;29;20185;-96
2021/01/25 13:54:27;;;;;;;1.40;1.27;;;;;;;12.86;100.00;94967.72;4943161;29;20242;-93
2021/01/25 13:56:54;;;;;;;2.83;1.07;;;;;;;12.86;100.00;94970.38;4946718;29;20199;-96
2021/01/25 13:59:21;;;;;;;1.20;1.13;;;;;;;12.71;100.00;94970.59;5338818;23;20252;-95
2021/01/25 14:04:20;;;;;;;1.00;1.00;;;;;;;12.37;100.00;94976.84;4966213;28;20225;-95
2021/01/25 14:06:47;;;;;;;0.63;0.63;;;;;;;12.36;100.00;94977.84;4960187;29;20243;-96
2021/01/25 14:09:19;;;;;;;1.30;1.20;;;;;;;12.41;100.00;94985.97;4963938;29;20198;-95
2021/01/25 14:11:46;;;;;;;0.70;0.70;;;;;;;12.31;100.00;94980.28;4967840;29;20686;-95
2021/01/25 14:14:14;;;;;;;1.27;1.17;;;;;;;12.32;100.00;94995.06;4975454;28;20209;-96
2021/01/25 14:16:41;;;;;;;1.07;0.97;;;;;;;12.29;100.00;94980.47;4964435;28;20209;-96
2021/01/25 14:19:09;;;;;;;1.27;1.07;;;;;;;12.24;100.00;95005.81;4964864;29;20284;-95
2021/01/25 14:21:36;;;;;;;1.67;1.57;;;;;;;12.14;100.00;95019.34;4968079;28;20712;-96
2021/01/25 14:24:03;;;;;;;1.40;1.30;;;;;;;12.16;100.00;95016.50;4961830;29;20789;-95
2021/01/25 14:26:31;;;;;;;1.70;1.60;;;;;;;12.07;100.00;95011.44;4965606;29;20237;-96
2021/01/25 14:28:58;;;;;;;4.07;3.47;;;;;;;12.13;100.00;95018.53;4958413;28;20190;-96
2021/01/25 14:31:25;;;;;;;4.00;2.83;;;;;;;11.87;100.00;95031.63;4963740;29;20194;-96
2021/01/25 14:33:52;;;;;;;2.47;2.23;;;;;;;11.92;100.00;95033.69;4967235;29;20193;-96
2021/01/25 14:36:21;;;;;;;2.53;2.00;;;;;;;11.77;100.00;95039.03;4968931;29;20202;-96
2021/01/25 14:38:48;;;;;;;1.90;1.80;;;;;;;11.53;100.00;95038.50;4966411;29;20767;-96
2021/01/25 14:41:15;;;;;;;2.00;1.70;;;;;;;11.62;100.00;95052.34;4968996;29;20202;-96
2021/01/25 14:43:44;;;;;;;2.90;2.57;;;;;;;11.48;100.00;95051.44;5135426;23;20237;-96
2021/01/25 14:46:11;;;;;;;1.90;1.70;;;;;;;11.37;100.00;95059.88;5052287;23;20225;-96
2021/01/25 14:48:38;;;;;;;6.43;4.20;;;;;;;11.16;100.00;95058.94;5014859;23;20312;-96
2021/01/25 14:56:14;;;;;;;5.47;4.97;;;;;;;10.80;100.00;95076.63;4955253;29;20218;-96
2021/01/25 14:58:41;;;;;;;2.30;1.70;;;;;;;10.55;100.00;95081.47;5553373;23;20217;-96
2021/01/25 15:03:44;;;;;;;1.90;1.70;;;;;;;10.36;100.00;95088.16;5754350;23;20209;-96
2021/01/25 15:52:45;;;;;;;11.80;8.07;;;;;;;8.15;100.00;95155.69;4548348;23;20233;-94
2021/01/25 16:05:39;;;;;;;3.93;3.10;;;;;;;8.01;100.00;95159.03;5705119;23;20208;-87
2021/01/25 16:10:39;;;;;;;17.77;9.70;;;;;;;8.06;100.00;95181.06;4971324;28;20295;-96
2021/01/25 16:31:49;;;;;;;2.25;2.05;;;;;;;7.59;100.00;95212.44;6037066;23;21069;31
2021/01/25 17:10:34;;;;;;;6.03;5.37;;;;;;;6.88;100.00;95245.25;5461068;23;20241;31
2021/01/25 17:13:03;;;;;;;8.87;6.63;;;;;;;6.67;100.00;95249.13;5030953;23;20236;-95
2021/01/25 17:30:20;;;;;;;13.53;9.57;;;;;;;6.75;100.00;95271.81;5748931;23;20301;-96
2021/01/25 17:32:50;;;;;;;11.53;9.53;;;;;;;6.71;100.00;95275.72;4973263;29;20193;-96
2021/01/25 17:43:03;;;;;;;51.97;27.93;;;;;;;5.76;100.00;95277.53;5130789;23;20241;-96
2021/01/25 17:45:31;;;;;;;29.40;17.07;;;;;;;5.78;100.00;95283.41;4976159;28;20217;-96
2021/01/25 17:58:25;;;;;;;8.73;7.40;;;;;;;5.89;100.00;95298.81;5713043;23;20237;-96
2021/01/25 18:00:54;;;;;;;2.97;2.70;;;;;;;5.73;100.00;95294.31;5235830;23;20253;-96
2021/01/25 18:03:21;;;;;;;3.10;2.90;;;;;;;5.63;100.00;95300.59;4970770;28;20213;-96
2021/01/25 18:05:49;;;;;;;4.70;3.20;;;;;;;5.52;100.00;95306.03;4966349;28;20225;-95
2021/01/25 18:08:17;;;;;;;13.00;9.57;;;;;;;5.75;100.00;95299.38;4972308;29;20202;-96
2021/01/25 18:13:20;;;;;;;34.67;22.67;;;;;;;5.62;100.00;95320.63;5177925;23;20229;-95
2021/01/25 18:15:49;;;;;;;43.47;34.73;;;;;;;5.43;100.00;95318.19;4964140;28;20194;-96
2021/01/25 18:18:18;;;;;;;22.83;17.63;;;;;;;5.34;100.00;95322.50;5320333;23;20324;-95
2021/01/25 18:26:00;;;;;;;19.63;16.57;;;;;;;5.33;100.00;95317.44;5267340;23;20256;-96
2021/01/25 18:28:28;;;;;;;20.53;16.63;;;;;;;5.39;100.00;95309.84;4974007;28;20225;-96
2021/01/25 18:30:55;;;;;;;9.67;8.63;;;;;;;5.57;100.00;95320.25;5030479;23;20300;-95
2021/01/25 18:33:23;;;;;;;4.57;2.63;;;;;;;5.68;100.00;95325.25;4972994;28;20206;-96
2021/01/25 18:35:51;;;;;;;3.50;2.07;;;;;;;5.65;100.00;95322.94;4970003;28;20583;-96
2021/01/25 18:38:18;;;;;;;1.77;1.33;;;;;;;5.90;100.00;95336.97;4973838;28;20265;-96
2021/01/25 18:40:45;;;;;;;1.67;1.57;;;;;;;5.86;100.00;95350.47;4969659;28;20198;-95
2021/01/25 18:43:12;;;;;;;5.07;3.63;;;;;;;6.18;100.00;95350.69;4963559;28;20265;-96
2021/01/25 18:45:42;;;;;;;1.80;1.70;;;;;;;6.04;100.00;95359.09;4953563;29;20221;-96
2021/01/25 18:48:10;;;;;;;1.60;1.50;;;;;;;6.03;100.00;95354.03;4973317;28;20202;-96
2021/01/25 18:50:39;;;;;;;1.70;1.50;;;;;;;6.05;100.00;95344.25;4976560;28;20761;-96
2021/01/25 18:53:06;;;;;;;1.10;1.10;;;;;;;5.93;100.00;95336.69;4963517;28;20679;-96
2021/01/25 18:55:33;;;;;;;3.03;2.47;;;;;;;6.17;100.00;95345.66;4961153;28;20202;-96
2021/01/25 18:58:00;;;;;;;4.00;2.47;;;;;;;6.17;100.00;95351.69;4964662;29;20197;-96
2021/01/25 19:00:28;;;;;;;1.87;1.70;;;;;;;6.10;100.00;95349.84;4961750;28;20206;-96
2021/01/25 19:02:56;;;;;;;4.50;3.30;;;;;;;6.28;100.00;95340.16;4961153;28;20233;-96
2021/01/25 19:05:25;;;;;;;9.50;3.17;;;;;;;6.15;100.00;95331.94;4958707;28;20257;-96
2021/01/25 19:07:54;;;;;;;1.50;1.40;;;;;;;6.12;100.00;95324.41;4961773;28;20202;-96
2021/01/25 19:10:27;;;;;;;1.50;1.40;;;;;;;6.16;100.00;95323.13;4965255;28;20618;-95
2021/01/25 19:12:54;;;;;;;4.43;3.37;;;;;;;6.31;100.00;95334.63;4962064;29;20865;-95
2021/01/25 19:15:25;;;;;;;3.00;2.20;;;;;;;6.10;100.00;95347.25;4968112;29;20209;-95
2021/01/25 19:17:51;;;;;;;3.03;1.80;;;;;;;5.89;100.00;95348.38;4963313;29;20210;-96
2021/01/25 19:20:21;;;;;;;1.30;1.20;;;;;;;5.71;100.00;95342.34;4961180;28;20651;-96
2021/01/25 19:22:49;;;;;;;1.13;1.13;;;;;;;5.52;100.00;95332.91;4961035;28;20654;-95
2021/01/25 19:25:18;;;;;;;1.60;1.50;;;;;;;5.67;100.00;95335.81;4959439;28;20234;-96
2021/01/25 19:27:45;;;;;;;2.10;1.90;;;;;;;5.98;100.00;95310.13;4963223;28;20201;-96
2021/01/25 19:30:14;;;;;;;2.53;1.83;;;;;;;5.88;100.00;95314.59;4965440;28;20241;-96
2021/01/25 19:32:41;;;;;;;7.60;5.87;;;;;;;6.05;100.00;95311.16;4969619;28;20318;-96
2021/01/25 19:35:10;;;;;;;5.20;4.70;;;;;;;5.91;100.00;95320.34;4966682;28;20583;-95
2021/01/25 19:37:37;;;;;;;3.50;2.17;;;;;;;5.81;100.00;95321.41;4963081;28;20249;-96
2021/01/25 19:40:06;;;;;;;1.90;1.80;;;;;;;5.81;100.00;95314.41;4963102;28;20193;-96
2021/01/25 19:42:34;;;;;;;1.40;1.23;;;;;;;5.79;100.00;95303.31;4961234;28;20256;-96
2021/01/25 19:45:01;;;;;;;2.23;1.70;;;;;;;5.77;100.00;95302.63;4960115;28;20312;-96
2021/01/25 19:47:28;;;;;;;4.87;3.33;;;;;;;5.94;100.00;95299.19;4961617;28;20210;-96
2021/01/25 19:49:55;;;;;;;3.67;3.37;;;;;;;5.79;100.00;95295.50;4961284;28;20221;-96
2021/01/25 19:52:23;;;;;;;2.87;2.67;;;;;;;5.76;100.00;95285.38;4965470;28;20198;-95
2021/01/25 19:54:51;;;;;;;2.13;1.93;;;;;;;5.65;100.00;95285.63;4969503;28;20301;-96
2021/01/25 19:57:19;;;;;;;9.17;6.37;;;;;;;5.83;100.00;95285.56;4968533;28;20214;-96
2021/01/25 19:59:47;;;;;;;4.83;4.33;;;;;;;5.92;100.00;95292.47;4962597;28;20207;-96
2021/01/25 20:02:14;;;;;;;7.57;4.63;;;;;;;6.12;100.00;95298.31;4963900;28;20197;-96
2021/01/25 20:04:41;;;;;;;5.53;5.00;;;;;;;5.91;100.00;95301.25;4971063;28;20229;-96
2021/01/25 20:07:08;;;;;;;8.43;6.17;;;;;;;5.70;100.00;95314.66;4972629;28;20206;-96
2021/01/25 20:09:35;;;;;;;4.43;4.03;;;;;;;5.76;100.00;95308.84;4960847;28;20276;-96
2021/01/25 20:12:02;;;;;;;4.07;3.20;;;;;;;5.69;100.00;95305.19;4960186;28;20202;-94
2021/01/25 20:14:29;;;;;;;4.83;4.33;;;;;;;5.51;100.00;95296.56;4961439;28;20198;-96
2021/01/25 20:16:57;;;;;;;2.67;2.47;;;;;;;5.45;100.00;95293.59;4965173;28;20213;-96
2021/01/25 20:19:24;;;;;;;2.30;2.10;;;;;;;5.43;100.00;95295.53;4960320;28;20198;-96
2021/01/25 20:21:51;;;;;;;7.37;5.17;;;;;;;5.53;100.00;95297.25;4958464;28;20202;-96
2021/01/25 20:24:18;;;;;;;20.17;12.83;;;;;;;5.64;100.00;95292.59;4958305;28;20205;-96
2021/01/25 20:26:45;;;;;;;7.87;5.23;;;;;;;5.58;100.00;95288.03;4957654;28;20257;-96
2021/01/25 20:29:12;;;;;;;31.30;17.33;;;;;;;5.35;100.00;95272.03;4967865;29;20202;-95
2021/01/25 20:31:39;;;;;;;11.07;8.13;;;;;;;5.35;100.00;95274.63;4965995;28;20241;-95
2021/01/25 20:34:07;;;;;;;21.43;14.87;;;;;;;5.32;100.00;95277.53;4961239;28;20209;-96
2021/01/25 20:36:35;;;;;;;27.13;15.93;;;;;;;5.25;100.00;95271.28;4958210;28;20206;-96
2021/01/25 20:39:08;;;;;;;38.57;25.97;;;;;;;5.40;100.00;95269.81;4966223;28;20225;-95
2021/01/25 20:41:37;;;;;;;11.47;9.23;;;;;;;5.28;100.00;95285.81;4974975;29;20220;-96
2021/01/25 20:44:07;;;;;;;23.70;16.97;;;;;;;5.13;100.00;95288.94;4972059;28;20202;-95
2021/01/25 20:46:35;;;;;;;8.77;5.77;;;;;;;4.96;100.00;95280.16;4972069;29;20236;-94
2021/01/25 20:49:03;;;;;;;5.23;4.37;;;;;;;5.04;100.00;95268.19;4971156;28;20206;-96
2021/01/25 20:51:34;;;;;;;6.37;5.53;;;;;;;5.08;100.00;95261.69;4974423;28;20193;-95
2021/01/25 20:54:01;;;;;;;4.07;3.43;;;;;;;5.15;100.00;95265.34;4973324;29;20205;-96
2021/01/25 20:56:30;;;;;;;25.23;15.43;;;;;;;5.49;100.00;95273.28;4975019;28;20213;-94